sensor_id;sensor_type;location;lat;lon;timestamp;temperature;humidity
36710;DHT22;22694;51.040;3.684;2023-03-04T00:00:36;14.60;63.70
36710;DHT22;22694;51.040;3.684;2023-03-04T00:03:07;14.60;63.80
36710;DHT22;22694;51.040;3.684;2023-03-04T00:05:35;14.60;63.80
36710;DHT22;22694;51.040;3.684;2023-03-04T00:08:02;14.50;63.80
36710;DHT22;22694;51.040;3.684;2023-03-04T00:10:27;14.40;63.90
36710;DHT22;22694;51.040;3.684;2023-03-04T00:12:53;14.40;63.90
36710;DHT22;22694;51.040;3.684;2023-03-04T00:15:19;14.40;64.00
36710;DHT22;22694;51.040;3.684;2023-03-04T00:17:44;14.40;64.00
36710;DHT22;22694;51.040;3.684;2023-03-04T00:20:11;14.30;64.10
36710;DHT22;22694;51.040;3.684;2023-03-04T00:22:37;14.30;64.20
36710;DHT22;22694;51.040;3.684;2023-03-04T00:25:03;14.30;64.30
36710;DHT22;22694;51.040;3.684;2023-03-04T00:27:28;14.30;64.50
36710;DHT22;22694;51.040;3.684;2023-03-04T00:29:55;14.30;64.70
36710;DHT22;22694;51.040;3.684;2023-03-04T00:32:20;14.20;64.60
36710;DHT22;22694;51.040;3.684;2023-03-04T00:34:46;14.20;64.70
36710;DHT22;22694;51.040;3.684;2023-03-04T00:37:12;14.20;64.70
36710;DHT22;22694;51.040;3.684;2023-03-04T00:39:38;14.10;64.70
36710;DHT22;22694;51.040;3.684;2023-03-04T00:42:04;14.10;64.70
36710;DHT22;22694;51.040;3.684;2023-03-04T00:44:29;14.10;64.80
36710;DHT22;22694;51.040;3.684;2023-03-04T00:46:55;14.10;64.90
36710;DHT22;22694;51.040;3.684;2023-03-04T00:49:21;14.10;64.90
36710;DHT22;22694;51.040;3.684;2023-03-04T00:51:46;14.00;64.90
36710;DHT22;22694;51.040;3.684;2023-03-04T00:54:12;14.00;65.00
36710;DHT22;22694;51.040;3.684;2023-03-04T00:56:38;14.00;65.00
36710;DHT22;22694;51.040;3.684;2023-03-04T00:59:04;13.90;65.00
36710;DHT22;22694;51.040;3.684;2023-03-04T01:01:29;14.00;65.10
36710;DHT22;22694;51.040;3.684;2023-03-04T01:03:55;13.90;65.20
36710;DHT22;22694;51.040;3.684;2023-03-04T01:06:21;13.90;65.20
36710;DHT22;22694;51.040;3.684;2023-03-04T01:08:46;13.90;65.20
36710;DHT22;22694;51.040;3.684;2023-03-04T01:11:12;13.90;65.30
36710;DHT22;22694;51.040;3.684;2023-03-04T01:13:38;13.80;65.30
36710;DHT22;22694;51.040;3.684;2023-03-04T01:16:05;13.80;65.40
36710;DHT22;22694;51.040;3.684;2023-03-04T01:18:31;13.80;65.40
36710;DHT22;22694;51.040;3.684;2023-03-04T01:20:58;13.80;65.40
36710;DHT22;22694;51.040;3.684;2023-03-04T01:23:23;13.70;65.40
36710;DHT22;22694;51.040;3.684;2023-03-04T01:25:49;13.70;65.50
36710;DHT22;22694;51.040;3.684;2023-03-04T01:28:15;13.70;65.50
36710;DHT22;22694;51.040;3.684;2023-03-04T01:30:40;13.70;65.60
36710;DHT22;22694;51.040;3.684;2023-03-04T01:33:06;13.70;65.60
36710;DHT22;22694;51.040;3.684;2023-03-04T01:35:32;13.70;65.70
36710;DHT22;22694;51.040;3.684;2023-03-04T01:37:57;13.60;65.70
36710;DHT22;22694;51.040;3.684;2023-03-04T01:40:23;13.70;65.80
36710;DHT22;22694;51.040;3.684;2023-03-04T01:42:49;13.60;65.80
36710;DHT22;22694;51.040;3.684;2023-03-04T01:45:17;13.60;65.80
36710;DHT22;22694;51.040;3.684;2023-03-04T01:47:45;13.60;65.80
36710;DHT22;22694;51.040;3.684;2023-03-04T01:50:33;13.60;65.90
36710;DHT22;22694;51.040;3.684;2023-03-04T01:53:01;13.50;65.70
36710;DHT22;22694;51.040;3.684;2023-03-04T01:55:28;13.50;65.80
36710;DHT22;22694;51.040;3.684;2023-03-04T01:57:53;13.50;65.80
36710;DHT22;22694;51.040;3.684;2023-03-04T02:00:32;13.50;65.70
36710;DHT22;22694;51.040;3.684;2023-03-04T02:03:05;13.40;65.80
36710;DHT22;22694;51.040;3.684;2023-03-04T02:05:38;13.50;66.00
36710;DHT22;22694;51.040;3.684;2023-03-04T02:08:04;13.40;65.90
36710;DHT22;22694;51.040;3.684;2023-03-04T02:10:30;13.40;66.10
36710;DHT22;22694;51.040;3.684;2023-03-04T02:12:56;13.40;66.10
36710;DHT22;22694;51.040;3.684;2023-03-04T02:15:23;13.40;66.20
36710;DHT22;22694;51.040;3.684;2023-03-04T02:17:49;13.40;66.20
36710;DHT22;22694;51.040;3.684;2023-03-04T02:20:47;13.40;66.10
36710;DHT22;22694;51.040;3.684;2023-03-04T02:23:37;13.40;66.20
36710;DHT22;22694;51.040;3.684;2023-03-04T02:26:28;13.30;66.00
36710;DHT22;22694;51.040;3.684;2023-03-04T02:28:56;13.30;66.20
36710;DHT22;22694;51.040;3.684;2023-03-04T02:34:05;13.30;66.40
36710;DHT22;22694;51.040;3.684;2023-03-04T02:36:33;13.20;66.30
36710;DHT22;22694;51.040;3.684;2023-03-04T02:39:10;13.30;66.30
36710;DHT22;22694;51.040;3.684;2023-03-04T02:41:36;13.20;66.30
36710;DHT22;22694;51.040;3.684;2023-03-04T02:44:02;13.20;66.40
36710;DHT22;22694;51.040;3.684;2023-03-04T02:46:28;13.20;66.40
36710;DHT22;22694;51.040;3.684;2023-03-04T02:48:54;13.20;66.40
36710;DHT22;22694;51.040;3.684;2023-03-04T02:51:19;13.20;66.40
36710;DHT22;22694;51.040;3.684;2023-03-04T02:53:45;13.20;66.20
36710;DHT22;22694;51.040;3.684;2023-03-04T02:56:11;13.20;66.30
36710;DHT22;22694;51.040;3.684;2023-03-04T02:58:36;13.20;66.40
36710;DHT22;22694;51.040;3.684;2023-03-04T03:01:04;13.10;66.40
36710;DHT22;22694;51.040;3.684;2023-03-04T03:03:29;13.10;66.40
36710;DHT22;22694;51.040;3.684;2023-03-04T03:05:55;13.10;66.40
36710;DHT22;22694;51.040;3.684;2023-03-04T03:08:20;13.10;66.40
36710;DHT22;22694;51.040;3.684;2023-03-04T03:10:46;13.10;66.40
36710;DHT22;22694;51.040;3.684;2023-03-04T03:13:12;13.10;66.50
36710;DHT22;22694;51.040;3.684;2023-03-04T03:15:37;13.00;66.50
36710;DHT22;22694;51.040;3.684;2023-03-04T03:18:09;13.00;66.50
36710;DHT22;22694;51.040;3.684;2023-03-04T03:20:35;13.10;66.60
36710;DHT22;22694;51.040;3.684;2023-03-04T03:23:02;13.00;66.50
36710;DHT22;22694;51.040;3.684;2023-03-04T03:25:27;13.00;66.60
36710;DHT22;22694;51.040;3.684;2023-03-04T03:27:53;13.00;66.60
36710;DHT22;22694;51.040;3.684;2023-03-04T03:30:19;13.00;66.60
36710;DHT22;22694;51.040;3.684;2023-03-04T03:32:45;13.00;66.50
36710;DHT22;22694;51.040;3.684;2023-03-04T03:35:11;13.00;66.60
36710;DHT22;22694;51.040;3.684;2023-03-04T03:37:36;12.90;66.60
36710;DHT22;22694;51.040;3.684;2023-03-04T03:40:03;12.90;66.80
36710;DHT22;22694;51.040;3.684;2023-03-04T03:42:29;12.90;66.70
36710;DHT22;22694;51.040;3.684;2023-03-04T03:44:55;12.90;66.70
36710;DHT22;22694;51.040;3.684;2023-03-04T03:47:20;12.90;66.70
36710;DHT22;22694;51.040;3.684;2023-03-04T03:49:46;12.90;66.70
36710;DHT22;22694;51.040;3.684;2023-03-04T03:52:12;12.90;66.80
36710;DHT22;22694;51.040;3.684;2023-03-04T03:54:38;12.90;66.80
36710;DHT22;22694;51.040;3.684;2023-03-04T03:57:03;12.90;66.70
36710;DHT22;22694;51.040;3.684;2023-03-04T03:59:29;12.90;66.70
36710;DHT22;22694;51.040;3.684;2023-03-04T04:01:55;12.90;66.80
36710;DHT22;22694;51.040;3.684;2023-03-04T04:04:20;12.80;66.70
36710;DHT22;22694;51.040;3.684;2023-03-04T04:06:46;12.80;66.80
36710;DHT22;22694;51.040;3.684;2023-03-04T04:09:11;12.80;66.70
36710;DHT22;22694;51.040;3.684;2023-03-04T04:11:37;12.80;66.70
36710;DHT22;22694;51.040;3.684;2023-03-04T04:14:03;12.80;66.80
36710;DHT22;22694;51.040;3.684;2023-03-04T04:16:29;12.80;66.80
36710;DHT22;22694;51.040;3.684;2023-03-04T04:18:55;12.80;66.80
36710;DHT22;22694;51.040;3.684;2023-03-04T04:21:20;12.80;66.80
36710;DHT22;22694;51.040;3.684;2023-03-04T04:23:46;12.80;66.80
36710;DHT22;22694;51.040;3.684;2023-03-04T04:26:12;12.70;66.70
36710;DHT22;22694;51.040;3.684;2023-03-04T04:28:37;12.70;66.80
36710;DHT22;22694;51.040;3.684;2023-03-04T04:31:06;12.70;66.80
36710;DHT22;22694;51.040;3.684;2023-03-04T04:33:32;12.70;67.40
36710;DHT22;22694;51.040;3.684;2023-03-04T04:35:58;12.70;66.80
36710;DHT22;22694;51.040;3.684;2023-03-04T04:38:25;12.70;66.90
36710;DHT22;22694;51.040;3.684;2023-03-04T04:40:51;12.70;67.00
36710;DHT22;22694;51.040;3.684;2023-03-04T04:43:16;12.70;67.00
36710;DHT22;22694;51.040;3.684;2023-03-04T04:45:42;12.70;67.00
36710;DHT22;22694;51.040;3.684;2023-03-04T04:48:08;12.70;67.00
36710;DHT22;22694;51.040;3.684;2023-03-04T04:50:33;12.70;67.00
36710;DHT22;22694;51.040;3.684;2023-03-04T04:52:59;12.70;67.70
36710;DHT22;22694;51.040;3.684;2023-03-04T04:55:25;12.70;67.20
36710;DHT22;22694;51.040;3.684;2023-03-04T04:57:51;12.60;67.20
36710;DHT22;22694;51.040;3.684;2023-03-04T05:00:17;12.60;67.20
36710;DHT22;22694;51.040;3.684;2023-03-04T05:02:43;12.60;67.20
36710;DHT22;22694;51.040;3.684;2023-03-04T05:05:09;12.60;67.20
36710;DHT22;22694;51.040;3.684;2023-03-04T05:07:35;12.60;67.30
36710;DHT22;22694;51.040;3.684;2023-03-04T05:10:00;12.60;67.30
36710;DHT22;22694;51.040;3.684;2023-03-04T05:12:26;12.60;67.30
36710;DHT22;22694;51.040;3.684;2023-03-04T05:14:52;12.60;67.30
36710;DHT22;22694;51.040;3.684;2023-03-04T05:17:17;12.60;67.30
36710;DHT22;22694;51.040;3.684;2023-03-04T05:19:43;12.60;67.30
36710;DHT22;22694;51.040;3.684;2023-03-04T05:22:09;12.50;67.30
36710;DHT22;22694;51.040;3.684;2023-03-04T05:24:34;12.50;67.30
36710;DHT22;22694;51.040;3.684;2023-03-04T05:27:01;12.50;67.60
36710;DHT22;22694;51.040;3.684;2023-03-04T05:29:26;12.50;67.50
36710;DHT22;22694;51.040;3.684;2023-03-04T05:31:52;12.50;68.10
36710;DHT22;22694;51.040;3.684;2023-03-04T05:34:18;12.50;67.50
36710;DHT22;22694;51.040;3.684;2023-03-04T05:36:44;12.50;67.50
36710;DHT22;22694;51.040;3.684;2023-03-04T05:39:09;12.50;67.50
36710;DHT22;22694;51.040;3.684;2023-03-04T05:41:35;12.50;67.50
36710;DHT22;22694;51.040;3.684;2023-03-04T05:44:01;12.50;67.50
36710;DHT22;22694;51.040;3.684;2023-03-04T05:46:26;12.50;67.60
36710;DHT22;22694;51.040;3.684;2023-03-04T05:48:53;12.50;67.60
36710;DHT22;22694;51.040;3.684;2023-03-04T05:51:20;12.50;67.50
36710;DHT22;22694;51.040;3.684;2023-03-04T05:53:46;12.40;67.40
36710;DHT22;22694;51.040;3.684;2023-03-04T05:56:17;12.40;67.40
36710;DHT22;22694;51.040;3.684;2023-03-04T05:58:43;12.40;67.40
36710;DHT22;22694;51.040;3.684;2023-03-04T06:01:09;12.40;67.50
36710;DHT22;22694;51.040;3.684;2023-03-04T06:03:35;12.40;67.50
36710;DHT22;22694;51.040;3.684;2023-03-04T06:06:01;12.40;67.50
36710;DHT22;22694;51.040;3.684;2023-03-04T06:08:27;12.40;67.40
36710;DHT22;22694;51.040;3.684;2023-03-04T06:10:54;12.40;67.50
36710;DHT22;22694;51.040;3.684;2023-03-04T06:13:20;12.40;67.50
36710;DHT22;22694;51.040;3.684;2023-03-04T06:15:47;12.40;67.50
36710;DHT22;22694;51.040;3.684;2023-03-04T06:18:17;12.40;68.10
36710;DHT22;22694;51.040;3.684;2023-03-04T06:20:43;12.40;67.50
36710;DHT22;22694;51.040;3.684;2023-03-04T06:23:09;12.40;67.50
36710;DHT22;22694;51.040;3.684;2023-03-04T06:25:35;12.30;67.40
36710;DHT22;22694;51.040;3.684;2023-03-04T06:28:01;12.40;67.50
36710;DHT22;22694;51.040;3.684;2023-03-04T06:30:27;12.30;67.50
36710;DHT22;22694;51.040;3.684;2023-03-04T06:32:53;12.30;67.80
36710;DHT22;22694;51.040;3.684;2023-03-04T06:35:19;12.30;68.30
36710;DHT22;22694;51.040;3.684;2023-03-04T06:37:44;12.30;68.20
36710;DHT22;22694;51.040;3.684;2023-03-04T06:40:11;12.30;68.00
36710;DHT22;22694;51.040;3.684;2023-03-04T06:42:37;12.30;68.00
36710;DHT22;22694;51.040;3.684;2023-03-04T06:45:04;12.30;68.00
36710;DHT22;22694;51.040;3.684;2023-03-04T06:47:30;12.30;68.00
36710;DHT22;22694;51.040;3.684;2023-03-04T06:49:56;12.30;68.00
36710;DHT22;22694;51.040;3.684;2023-03-04T06:52:22;12.30;67.90
36710;DHT22;22694;51.040;3.684;2023-03-04T06:54:47;12.30;68.00
36710;DHT22;22694;51.040;3.684;2023-03-04T06:57:13;12.30;68.30
36710;DHT22;22694;51.040;3.684;2023-03-04T06:59:39;12.40;77.00
36710;DHT22;22694;51.040;3.684;2023-03-04T07:02:05;12.80;82.00
36710;DHT22;22694;51.040;3.684;2023-03-04T07:04:31;12.90;78.30
36710;DHT22;22694;51.040;3.684;2023-03-04T07:06:57;13.10;77.60
36710;DHT22;22694;51.040;3.684;2023-03-04T07:09:23;13.00;72.30
36710;DHT22;22694;51.040;3.684;2023-03-04T07:11:48;13.10;74.70
36710;DHT22;22694;51.040;3.684;2023-03-04T07:14:14;13.00;71.00
36710;DHT22;22694;51.040;3.684;2023-03-04T07:16:40;12.90;70.00
36710;DHT22;22694;51.040;3.684;2023-03-04T07:19:06;12.80;68.60
36710;DHT22;22694;51.040;3.684;2023-03-04T07:21:31;12.70;67.90
36710;DHT22;22694;51.040;3.684;2023-03-04T07:23:57;12.60;67.70
36710;DHT22;22694;51.040;3.684;2023-03-04T07:26:23;12.60;67.80
36710;DHT22;22694;51.040;3.684;2023-03-04T07:28:48;12.50;67.70
36710;DHT22;22694;51.040;3.684;2023-03-04T07:31:31;12.50;67.70
36710;DHT22;22694;51.040;3.684;2023-03-04T07:34:03;12.50;67.80
36710;DHT22;22694;51.040;3.684;2023-03-04T07:36:29;12.40;67.80
36710;DHT22;22694;51.040;3.684;2023-03-04T07:38:55;12.40;67.70
36710;DHT22;22694;51.040;3.684;2023-03-04T07:41:22;12.40;67.80
36710;DHT22;22694;51.040;3.684;2023-03-04T07:43:49;12.40;67.80
36710;DHT22;22694;51.040;3.684;2023-03-04T07:46:15;12.30;67.80
36710;DHT22;22694;51.040;3.684;2023-03-04T07:48:41;12.30;67.80
36710;DHT22;22694;51.040;3.684;2023-03-04T07:53:33;12.30;67.80
36710;DHT22;22694;51.040;3.684;2023-03-04T07:55:58;12.30;67.90
36710;DHT22;22694;51.040;3.684;2023-03-04T07:58:24;12.30;67.90
36710;DHT22;22694;51.040;3.684;2023-03-04T08:00:50;12.30;68.00
36710;DHT22;22694;51.040;3.684;2023-03-04T08:03:15;12.30;67.90
36710;DHT22;22694;51.040;3.684;2023-03-04T08:05:41;12.20;67.90
36710;DHT22;22694;51.040;3.684;2023-03-04T08:08:07;12.20;68.00
36710;DHT22;22694;51.040;3.684;2023-03-04T08:10:33;12.20;68.00
36710;DHT22;22694;51.040;3.684;2023-03-04T08:13:00;12.20;67.90
36710;DHT22;22694;51.040;3.684;2023-03-04T08:15:25;12.20;68.00
36710;DHT22;22694;51.040;3.684;2023-03-04T08:17:52;12.20;67.90
36710;DHT22;22694;51.040;3.684;2023-03-04T08:20:17;12.20;68.00
36710;DHT22;22694;51.040;3.684;2023-03-04T08:22:43;12.20;67.90
36710;DHT22;22694;51.040;3.684;2023-03-04T08:25:09;12.20;68.00
36710;DHT22;22694;51.040;3.684;2023-03-04T08:27:35;12.20;68.00
36710;DHT22;22694;51.040;3.684;2023-03-04T08:30:05;12.20;68.00
36710;DHT22;22694;51.040;3.684;2023-03-04T08:32:30;12.20;68.00
36710;DHT22;22694;51.040;3.684;2023-03-04T08:34:56;12.20;68.00
36710;DHT22;22694;51.040;3.684;2023-03-04T08:37:22;12.20;68.10
36710;DHT22;22694;51.040;3.684;2023-03-04T08:39:48;12.20;67.90
36710;DHT22;22694;51.040;3.684;2023-03-04T08:42:13;12.20;73.60
36710;DHT22;22694;51.040;3.684;2023-03-04T08:44:40;13.00;91.30
36710;DHT22;22694;51.040;3.684;2023-03-04T08:47:05;13.70;88.20
36710;DHT22;22694;51.040;3.684;2023-03-04T08:49:34;14.10;82.90
36710;DHT22;22694;51.040;3.684;2023-03-04T08:52:00;14.10;78.70
36710;DHT22;22694;51.040;3.684;2023-03-04T08:54:26;14.00;75.40
36710;DHT22;22694;51.040;3.684;2023-03-04T08:56:52;13.70;70.00
36710;DHT22;22694;51.040;3.684;2023-03-04T08:59:17;13.50;69.30
36710;DHT22;22694;51.040;3.684;2023-03-04T09:01:43;13.30;68.50
36710;DHT22;22694;51.040;3.684;2023-03-04T09:04:09;13.20;68.20
36710;DHT22;22694;51.040;3.684;2023-03-04T09:06:35;13.10;68.10
36710;DHT22;22694;51.040;3.684;2023-03-04T09:09:01;13.10;68.20
36710;DHT22;22694;51.040;3.684;2023-03-04T09:11:27;13.00;68.30
36710;DHT22;22694;51.040;3.684;2023-03-04T09:13:53;12.90;68.40
36710;DHT22;22694;51.040;3.684;2023-03-04T09:16:18;13.20;81.10
36710;DHT22;22694;51.040;3.684;2023-03-04T09:18:44;13.50;84.20
36710;DHT22;22694;51.040;3.684;2023-03-04T09:21:10;13.90;84.50
36710;DHT22;22694;51.040;3.684;2023-03-04T09:23:36;14.10;83.70
36710;DHT22;22694;51.040;3.684;2023-03-04T09:26:22;14.40;82.80
36710;DHT22;22694;51.040;3.684;2023-03-04T09:28:57;14.40;78.40
36710;DHT22;22694;51.040;3.684;2023-03-04T09:31:23;14.10;72.00
36710;DHT22;22694;51.040;3.684;2023-03-04T09:33:51;13.90;69.70
36710;DHT22;22694;51.040;3.684;2023-03-04T09:36:17;13.60;68.30
36710;DHT22;22694;51.040;3.684;2023-03-04T09:38:43;13.50;67.90
36710;DHT22;22694;51.040;3.684;2023-03-04T09:41:21;13.40;68.00
36710;DHT22;22694;51.040;3.684;2023-03-04T09:43:49;13.30;68.90
36710;DHT22;22694;51.040;3.684;2023-03-04T09:46:34;13.20;68.50
36710;DHT22;22694;51.040;3.684;2023-03-04T09:49:02;13.10;68.60
36710;DHT22;22694;51.040;3.684;2023-03-04T09:51:45;13.10;68.80
36710;DHT22;22694;51.040;3.684;2023-03-04T09:54:17;13.00;68.90
36710;DHT22;22694;51.040;3.684;2023-03-04T09:56:45;13.00;69.10
36710;DHT22;22694;51.040;3.684;2023-03-04T09:59:15;13.00;69.10
36710;DHT22;22694;51.040;3.684;2023-03-04T10:02:30;12.90;69.20
36710;DHT22;22694;51.040;3.684;2023-03-04T10:04:49;12.90;69.30
36710;DHT22;22694;51.040;3.684;2023-03-04T10:07:23;12.90;69.40
36710;DHT22;22694;51.040;3.684;2023-03-04T10:10:12;12.80;69.40
36710;DHT22;22694;51.040;3.684;2023-03-04T10:12:42;12.80;69.40
36710;DHT22;22694;51.040;3.684;2023-03-04T10:18:06;12.80;69.60
36710;DHT22;22694;51.040;3.684;2023-03-04T10:21:14;13.10;85.50
36710;DHT22;22694;51.040;3.684;2023-03-04T10:23:42;13.50;80.80
36710;DHT22;22694;51.040;3.684;2023-03-04T10:26:13;13.40;74.40
36710;DHT22;22694;51.040;3.684;2023-03-04T10:28:39;13.50;74.20
36710;DHT22;22694;51.040;3.684;2023-03-04T10:33:47;13.30;70.20
36710;DHT22;22694;51.040;3.684;2023-03-04T10:39:18;13.20;69.70
36710;DHT22;22694;51.040;3.684;2023-03-04T10:41:44;13.10;70.30
36710;DHT22;22694;51.040;3.684;2023-03-04T10:44:15;13.10;69.90
36710;DHT22;22694;51.040;3.684;2023-03-04T10:46:46;13.00;70.00
36710;DHT22;22694;51.040;3.684;2023-03-04T10:49:14;13.00;70.20
36710;DHT22;22694;51.040;3.684;2023-03-04T10:54:24;13.00;70.30
36710;DHT22;22694;51.040;3.684;2023-03-04T10:57:12;13.00;70.30
36710;DHT22;22694;51.040;3.684;2023-03-04T10:59:43;13.00;70.30
36710;DHT22;22694;51.040;3.684;2023-03-04T11:02:23;13.00;70.30
36710;DHT22;22694;51.040;3.684;2023-03-04T11:05:35;13.00;70.20
36710;DHT22;22694;51.040;3.684;2023-03-04T11:07:49;13.00;70.90
36710;DHT22;22694;51.040;3.684;2023-03-04T11:10:39;13.00;70.30
36710;DHT22;22694;51.040;3.684;2023-03-04T11:15:57;13.00;70.30
36710;DHT22;22694;51.040;3.684;2023-03-04T11:18:45;13.00;70.20
36710;DHT22;22694;51.040;3.684;2023-03-04T11:21:28;13.00;70.20
36710;DHT22;22694;51.040;3.684;2023-03-04T11:26:40;13.10;70.30
36710;DHT22;22694;51.040;3.684;2023-03-04T11:29:37;13.00;70.20
36710;DHT22;22694;51.040;3.684;2023-03-04T11:32:26;13.10;70.20
36710;DHT22;22694;51.040;3.684;2023-03-04T11:37:25;13.10;70.10
36710;DHT22;22694;51.040;3.684;2023-03-04T11:42:40;13.20;70.20
36710;DHT22;22694;51.040;3.684;2023-03-04T11:45:15;13.20;70.20
36710;DHT22;22694;51.040;3.684;2023-03-04T11:47:47;13.20;70.10
36710;DHT22;22694;51.040;3.684;2023-03-04T11:53:30;13.30;70.10
36710;DHT22;22694;51.040;3.684;2023-03-04T12:02:15;13.30;70.00
36710;DHT22;22694;51.040;3.684;2023-03-04T12:10:32;13.30;69.90
36710;DHT22;22694;51.040;3.684;2023-03-04T12:21:13;13.40;69.70
36710;DHT22;22694;51.040;3.684;2023-03-04T12:26:50;13.60;82.70
36710;DHT22;22694;51.040;3.684;2023-03-04T12:33:11;14.40;83.70
36710;DHT22;22694;51.040;3.684;2023-03-04T12:46:20;13.90;71.90
36710;DHT22;22694;51.040;3.684;2023-03-04T12:49:11;13.90;71.30
36710;DHT22;22694;51.040;3.684;2023-03-04T12:52:10;13.90;71.30
36710;DHT22;22694;51.040;3.684;2023-03-04T12:55:08;13.80;71.20
36710;DHT22;22694;51.040;3.684;2023-03-04T12:57:35;13.80;71.20
36710;DHT22;22694;51.040;3.684;2023-03-04T13:05:41;13.70;71.00
36710;DHT22;22694;51.040;3.684;2023-03-04T13:08:30;13.70;70.90
36710;DHT22;22694;51.040;3.684;2023-03-04T13:11:31;13.70;70.70
36710;DHT22;22694;51.040;3.684;2023-03-04T13:14:07;13.70;70.80
36710;DHT22;22694;51.040;3.684;2023-03-04T13:16:51;13.70;70.70
36710;DHT22;22694;51.040;3.684;2023-03-04T13:19:55;13.70;70.70
36710;DHT22;22694;51.040;3.684;2023-03-04T13:25:39;13.70;70.70
36710;DHT22;22694;51.040;3.684;2023-03-04T13:35:58;13.60;70.40
36710;DHT22;22694;51.040;3.684;2023-03-04T13:49:01;13.60;70.20
36710;DHT22;22694;51.040;3.684;2023-03-04T13:51:42;13.60;70.20
36710;DHT22;22694;51.040;3.684;2023-03-04T13:54:32;13.60;70.20
36710;DHT22;22694;51.040;3.684;2023-03-04T14:02:00;13.70;70.30
36710;DHT22;22694;51.040;3.684;2023-03-04T14:04:37;13.70;70.10
36710;DHT22;22694;51.040;3.684;2023-03-04T14:10:03;13.70;70.00
36710;DHT22;22694;51.040;3.684;2023-03-04T14:12:35;13.70;69.90
36710;DHT22;22694;51.040;3.684;2023-03-04T14:15:25;13.70;69.80
36710;DHT22;22694;51.040;3.684;2023-03-04T14:17:54;13.60;69.70
36710;DHT22;22694;51.040;3.684;2023-03-04T14:20:26;13.70;69.70
36710;DHT22;22694;51.040;3.684;2023-03-04T14:22:52;13.70;69.80
36710;DHT22;22694;51.040;3.684;2023-03-04T14:25:22;13.60;69.70
36710;DHT22;22694;51.040;3.684;2023-03-04T14:27:48;13.70;69.80
36710;DHT22;22694;51.040;3.684;2023-03-04T14:30:26;13.70;69.80
36710;DHT22;22694;51.040;3.684;2023-03-04T14:32:53;13.70;69.80
36710;DHT22;22694;51.040;3.684;2023-03-04T14:35:24;13.70;69.70
36710;DHT22;22694;51.040;3.684;2023-03-04T14:40:29;13.70;69.70
36710;DHT22;22694;51.040;3.684;2023-03-04T14:43:09;13.70;69.70
36710;DHT22;22694;51.040;3.684;2023-03-04T14:45:39;13.70;69.70
36710;DHT22;22694;51.040;3.684;2023-03-04T14:48:05;13.70;69.60
36710;DHT22;22694;51.040;3.684;2023-03-04T14:50:32;13.70;69.70
36710;DHT22;22694;51.040;3.684;2023-03-04T14:55:32;13.70;69.60
36710;DHT22;22694;51.040;3.684;2023-03-04T14:58:15;13.70;69.50
36710;DHT22;22694;51.040;3.684;2023-03-04T15:00:44;13.70;69.50
36710;DHT22;22694;51.040;3.684;2023-03-04T15:03:20;13.70;69.50
36710;DHT22;22694;51.040;3.684;2023-03-04T15:05:47;13.70;69.40
36710;DHT22;22694;51.040;3.684;2023-03-04T15:08:35;13.70;69.40
36710;DHT22;22694;51.040;3.684;2023-03-04T15:11:04;13.70;69.40
36710;DHT22;22694;51.040;3.684;2023-03-04T15:13:47;13.60;69.30
36710;DHT22;22694;51.040;3.684;2023-03-04T15:16:19;13.70;69.40
36710;DHT22;22694;51.040;3.684;2023-03-04T15:19:23;13.70;69.40
36710;DHT22;22694;51.040;3.684;2023-03-04T15:21:49;13.60;69.30
36710;DHT22;22694;51.040;3.684;2023-03-04T15:24:15;13.60;69.40
36710;DHT22;22694;51.040;3.684;2023-03-04T15:26:42;13.60;69.40
36710;DHT22;22694;51.040;3.684;2023-03-04T15:29:13;13.80;76.30
36710;DHT22;22694;51.040;3.684;2023-03-04T15:31:40;13.90;75.60
36710;DHT22;22694;51.040;3.684;2023-03-04T15:34:12;13.90;71.60
36710;DHT22;22694;51.040;3.684;2023-03-04T15:36:38;14.10;77.50
36710;DHT22;22694;51.040;3.684;2023-03-04T15:39:04;14.10;73.60
36710;DHT22;22694;51.040;3.684;2023-03-04T15:41:30;14.00;70.80
36710;DHT22;22694;51.040;3.684;2023-03-04T15:43:55;13.90;69.90
36710;DHT22;22694;51.040;3.684;2023-03-04T15:46:22;13.90;69.70
36710;DHT22;22694;51.040;3.684;2023-03-04T15:48:48;13.90;69.70
36710;DHT22;22694;51.040;3.684;2023-03-04T15:51:19;13.80;69.80
36710;DHT22;22694;51.040;3.684;2023-03-04T15:53:54;13.80;69.70
36710;DHT22;22694;51.040;3.684;2023-03-04T15:56:28;13.90;73.90
36710;DHT22;22694;51.040;3.684;2023-03-04T15:59:09;13.90;71.70
36710;DHT22;22694;51.040;3.684;2023-03-04T16:01:35;13.90;70.50
36710;DHT22;22694;51.040;3.684;2023-03-04T16:04:00;13.80;70.10
36710;DHT22;22694;51.040;3.684;2023-03-04T16:06:29;13.80;70.00
36710;DHT22;22694;51.040;3.684;2023-03-04T16:08:55;13.90;74.50
36710;DHT22;22694;51.040;3.684;2023-03-04T16:11:24;14.00;76.00
36710;DHT22;22694;51.040;3.684;2023-03-04T16:13:50;14.20;76.20
36710;DHT22;22694;51.040;3.684;2023-03-04T16:16:17;14.30;76.30
36710;DHT22;22694;51.040;3.684;2023-03-04T16:18:42;14.40;76.30
36710;DHT22;22694;51.040;3.684;2023-03-04T16:21:13;14.40;76.20
36710;DHT22;22694;51.040;3.684;2023-03-04T16:23:41;14.50;76.60
36710;DHT22;22694;51.040;3.684;2023-03-04T16:26:12;14.60;76.80
36710;DHT22;22694;51.040;3.684;2023-03-04T16:28:38;14.70;76.50
36710;DHT22;22694;51.040;3.684;2023-03-04T16:31:05;14.70;76.40
36710;DHT22;22694;51.040;3.684;2023-03-04T16:33:30;14.70;76.30
36710;DHT22;22694;51.040;3.684;2023-03-04T16:35:56;14.70;76.30
36710;DHT22;22694;51.040;3.684;2023-03-04T16:38:27;14.70;76.20
36710;DHT22;22694;51.040;3.684;2023-03-04T16:40:54;14.80;76.00
36710;DHT22;22694;51.040;3.684;2023-03-04T16:43:21;14.80;80.80
36710;DHT22;22694;51.040;3.684;2023-03-04T16:45:46;15.00;83.60
36710;DHT22;22694;51.040;3.684;2023-03-04T16:48:14;14.90;77.70
36710;DHT22;22694;51.040;3.684;2023-03-04T16:50:40;14.80;72.50
36710;DHT22;22694;51.040;3.684;2023-03-04T16:53:26;14.60;70.50
36710;DHT22;22694;51.040;3.684;2023-03-04T16:55:53;14.60;71.90
36710;DHT22;22694;51.040;3.684;2023-03-04T16:58:19;14.70;75.10
36710;DHT22;22694;51.040;3.684;2023-03-04T17:00:44;14.80;76.10
36710;DHT22;22694;51.040;3.684;2023-03-04T17:03:10;14.90;77.00
36710;DHT22;22694;51.040;3.684;2023-03-04T17:05:36;14.90;77.10
36710;DHT22;22694;51.040;3.684;2023-03-04T17:08:02;15.00;77.30
36710;DHT22;22694;51.040;3.684;2023-03-04T17:10:28;15.10;77.20
36710;DHT22;22694;51.040;3.684;2023-03-04T17:12:53;15.10;77.10
36710;DHT22;22694;51.040;3.684;2023-03-04T17:15:19;15.10;77.10
36710;DHT22;22694;51.040;3.684;2023-03-04T17:17:45;15.10;77.10
36710;DHT22;22694;51.040;3.684;2023-03-04T17:20:14;15.10;77.00
36710;DHT22;22694;51.040;3.684;2023-03-04T17:22:41;15.20;77.00
36710;DHT22;22694;51.040;3.684;2023-03-04T17:25:07;15.20;76.90
36710;DHT22;22694;51.040;3.684;2023-03-04T17:27:34;15.10;76.80
36710;DHT22;22694;51.040;3.684;2023-03-04T17:30:00;15.20;76.90